createdAt,value
2022-10-11T00:00:59.817Z,1.00
2022-10-11T00:03:27.802Z,1.40
2022-10-11T00:05:55.525Z,0.90
2022-10-11T00:08:23.228Z,0.90
2022-10-11T00:10:58.048Z,1.00
2022-10-11T00:13:26.029Z,1.27
2022-10-11T00:15:55.344Z,1.08
2022-10-11T00:18:23.387Z,0.90
2022-10-11T00:20:51.169Z,1.20
2022-10-11T00:23:18.870Z,1.17
2022-10-11T00:25:46.508Z,1.05
2022-10-11T00:28:14.207Z,1.08
2022-10-11T00:30:43.635Z,1.00
2022-10-11T00:33:12.672Z,1.15
2022-10-11T00:35:41.473Z,1.57
2022-10-11T00:38:09.148Z,1.17
2022-10-11T00:40:36.909Z,1.02
2022-10-11T00:43:04.624Z,1.20
2022-10-11T00:46:00.537Z,1.30
2022-10-11T00:48:37.561Z,1.00
2022-10-11T00:51:09.278Z,1.10
2022-10-11T00:53:37.127Z,1.02
2022-10-11T00:56:10.936Z,1.00
2022-10-11T00:58:39.693Z,1.20
2022-10-11T01:01:07.497Z,1.20
2022-10-11T01:03:38.799Z,1.00
2022-10-11T01:06:07.276Z,0.80
2022-10-11T01:08:35.412Z,0.90
2022-10-11T01:11:03.397Z,0.90
2022-10-11T01:13:40.271Z,1.27
2022-10-11T01:16:14.668Z,1.10
2022-10-11T01:18:50.605Z,1.10
2022-10-11T01:21:29.500Z,1.08
2022-10-11T01:24:35.411Z,0.90
2022-10-11T01:27:40.693Z,0.73
2022-10-11T01:30:22.345Z,1.10
2022-10-11T01:32:56.660Z,0.98
2022-10-11T01:35:31.180Z,0.90
2022-10-11T01:38:04.608Z,1.10
2022-10-11T01:40:36.023Z,1.07
2022-10-11T01:43:05.310Z,1.00
2022-10-11T01:45:35.607Z,1.10
2022-10-11T01:48:06.018Z,0.80
2022-10-11T01:50:38.278Z,0.93
2022-10-11T01:53:16.700Z,0.70
2022-10-11T01:55:50.908Z,0.70
2022-10-11T01:58:30.093Z,1.17
2022-10-11T02:01:07.374Z,0.80
2022-10-11T02:03:44.725Z,0.90
2022-10-11T02:06:17.732Z,0.97
2022-10-11T02:08:54.882Z,0.85
2022-10-11T02:11:26.178Z,0.93
2022-10-11T02:14:00.724Z,0.90
2022-10-11T02:16:38.004Z,0.82
2022-10-11T02:19:07.033Z,0.80
2022-10-11T02:21:37.126Z,0.90
2022-10-11T02:24:09.391Z,0.85
2022-10-11T02:26:41.550Z,1.02
2022-10-11T02:29:13.077Z,0.90
2022-10-11T02:31:44.746Z,1.07
2022-10-11T02:34:16.167Z,0.80
2022-10-11T02:36:51.677Z,0.80
2022-10-11T02:39:26.871Z,1.27
2022-10-11T02:41:58.654Z,1.23
2022-10-11T02:44:32.069Z,1.30
2022-10-11T02:47:02.096Z,0.90
2022-10-11T02:49:31.096Z,1.05
2022-10-11T02:51:59.288Z,1.30
2022-10-11T02:54:28.080Z,0.95
2022-10-11T02:56:55.765Z,1.10
2022-10-11T02:59:23.460Z,0.90
2022-10-11T03:01:51.217Z,1.50
2022-10-11T03:04:20.375Z,0.95
2022-10-11T03:06:48.104Z,0.80
2022-10-11T03:09:15.788Z,1.10
2022-10-11T03:11:43.476Z,1.00
2022-10-11T03:14:11.160Z,0.90
2022-10-11T03:16:38.887Z,1.35
2022-10-11T03:19:06.581Z,1.40
2022-10-11T03:21:35.844Z,1.27
2022-10-11T03:24:03.498Z,1.00
2022-10-11T03:26:31.195Z,1.10
2022-10-11T03:28:59.268Z,1.45
2022-10-11T03:31:26.979Z,1.23
2022-10-11T03:33:54.697Z,1.13
2022-10-11T03:36:22.481Z,1.55
2022-10-11T03:38:51.500Z,1.00
2022-10-11T03:41:19.167Z,1.35
2022-10-11T03:43:46.872Z,1.08
2022-10-11T03:46:15.308Z,1.30
2022-10-11T03:48:42.964Z,0.98
2022-10-11T03:51:12.970Z,1.48
2022-10-11T03:53:40.747Z,1.20
2022-10-11T03:56:10.559Z,1.60
2022-10-11T03:58:38.643Z,1.10
2022-10-11T04:01:06.322Z,1.02
2022-10-11T04:03:34.144Z,0.70
2022-10-11T04:06:02.317Z,1.50
2022-10-11T04:08:30.274Z,1.00
2022-10-11T04:10:57.948Z,0.83
2022-10-11T04:13:27.126Z,0.70
2022-10-11T04:15:54.749Z,1.15
2022-10-11T04:18:22.426Z,1.00
2022-10-11T04:20:50.177Z,0.88
2022-10-11T04:23:17.878Z,1.10
2022-10-11T04:25:48.205Z,1.10
2022-10-11T04:28:15.993Z,1.10
2022-10-11T04:30:45.076Z,1.67
2022-10-11T04:33:12.719Z,1.20
2022-10-11T04:35:40.802Z,1.37
2022-10-11T04:38:08.458Z,1.30
2022-10-11T04:40:36.119Z,1.55
2022-10-11T04:43:03.847Z,1.58
2022-10-11T04:45:32.094Z,1.00
2022-10-11T04:48:01.094Z,1.43
2022-10-11T04:50:28.801Z,1.98
2022-10-11T04:52:58.414Z,1.30
2022-10-11T04:55:26.103Z,1.27
2022-10-11T04:57:53.783Z,1.20
2022-10-11T05:00:21.848Z,2.10
2022-10-11T05:02:49.556Z,1.40
2022-10-11T05:05:18.922Z,1.45
2022-10-11T05:07:47.132Z,1.25
2022-10-11T05:10:14.938Z,1.00
2022-10-11T05:12:42.782Z,1.33
2022-10-11T05:15:11.161Z,1.20
2022-10-11T05:17:38.922Z,1.38
2022-10-11T05:20:07.824Z,1.35
2022-10-11T05:22:36.940Z,1.65
2022-10-11T05:25:05.113Z,1.33
2022-10-11T05:27:32.811Z,1.42
2022-10-11T05:30:00.478Z,1.35
2022-10-11T05:32:28.377Z,1.40
2022-10-11T05:34:56.113Z,1.63
2022-10-11T05:37:24.346Z,1.17
2022-10-11T05:39:53.922Z,1.40
2022-10-11T05:42:21.584Z,2.03
2022-10-11T05:44:49.385Z,1.38
2022-10-11T05:47:17.062Z,1.60
2022-10-11T05:49:44.710Z,1.53
2022-10-11T05:52:13.232Z,1.52
2022-10-11T05:54:40.880Z,1.70
2022-10-11T05:57:10.005Z,1.58
2022-10-11T05:59:37.712Z,1.65
2022-10-11T06:02:05.371Z,2.00
2022-10-11T06:04:37.411Z,2.40
2022-10-11T06:07:05.236Z,2.20
2022-10-11T06:09:34.763Z,1.80
2022-10-11T06:12:02.941Z,2.33
2022-10-11T06:14:32.266Z,2.10
2022-10-11T06:16:59.967Z,1.83
2022-10-11T06:19:27.863Z,2.00
2022-10-11T06:21:55.612Z,1.48
2022-10-11T06:24:23.443Z,2.95
2022-10-11T06:26:51.971Z,3.87
2022-10-11T06:29:19.651Z,4.70
2022-10-11T06:31:48.941Z,4.03
2022-10-11T06:34:16.926Z,3.20
2022-10-11T06:36:44.571Z,3.47
2022-10-11T06:39:12.284Z,3.30
2022-10-11T06:41:40.022Z,4.07
2022-10-11T06:44:11.943Z,6.95
2022-10-11T06:46:42.324Z,4.75
2022-10-11T06:49:11.337Z,5.22
2022-10-11T06:51:39.110Z,7.87
2022-10-11T06:54:06.888Z,7.88
2022-10-11T06:56:34.679Z,5.50
2022-10-11T06:59:03.535Z,3.70
2022-10-11T07:01:32.771Z,3.13
2022-10-11T07:04:01.583Z,2.60
2022-10-11T07:06:31.948Z,2.30
2022-10-11T07:09:01.128Z,2.25
2022-10-11T07:11:29.820Z,2.30
2022-10-11T07:13:59.490Z,2.15
2022-10-11T07:16:28.001Z,2.07
2022-10-11T07:19:00.416Z,2.15
2022-10-11T07:21:31.172Z,2.55
2022-10-11T07:23:58.913Z,1.80
2022-10-11T07:26:26.879Z,1.88
2022-10-11T07:28:54.848Z,2.00
2022-10-11T07:31:25.634Z,1.98
2022-10-11T07:33:53.697Z,2.47
2022-10-11T07:36:23.352Z,2.17
2022-10-11T07:38:52.800Z,1.80
2022-10-11T07:41:20.961Z,2.10
2022-10-11T07:43:49.744Z,2.42
2022-10-11T07:46:18.672Z,2.08
2022-10-11T07:48:46.457Z,2.00
2022-10-11T07:51:16.733Z,2.00
2022-10-11T07:53:46.459Z,1.60
2022-10-11T07:56:19.134Z,1.88
2022-10-11T07:58:51.028Z,2.00
2022-10-11T08:01:18.955Z,1.95
2022-10-11T08:03:47.055Z,2.25
2022-10-11T08:06:16.083Z,2.00
2022-10-11T08:08:44.022Z,1.80
2022-10-11T08:11:19.856Z,1.80
2022-10-11T08:13:49.035Z,2.05
2022-10-11T08:16:17.080Z,1.83
2022-10-11T08:18:44.972Z,2.90
2022-10-11T08:21:14.888Z,2.10
2022-10-11T08:23:42.949Z,5.53
2022-10-11T08:26:11.078Z,3.63
2022-10-11T08:28:39.311Z,1.92
2022-10-11T08:31:08.520Z,1.67
2022-10-11T08:33:36.241Z,2.00
2022-10-11T08:36:06.742Z,1.95
2022-10-11T08:38:36.589Z,2.22
2022-10-11T08:41:04.765Z,1.40
2022-10-11T08:43:43.498Z,2.07
2022-10-11T08:46:15.108Z,1.70
2022-10-11T08:48:45.856Z,2.70
2022-10-11T08:51:18.337Z,1.98
2022-10-11T08:53:50.159Z,1.33
2022-10-11T08:56:19.067Z,1.40
2022-10-11T08:58:51.827Z,1.10
2022-10-11T09:01:23.431Z,1.10
2022-10-11T09:03:51.889Z,1.00
2022-10-11T09:06:29.100Z,1.02
2022-10-11T09:09:07.848Z,1.07
2022-10-11T09:11:47.292Z,1.20
2022-10-11T09:14:50.719Z,0.88
2022-10-11T09:17:31.180Z,1.00
2022-10-11T09:20:23.526Z,1.05
2022-10-11T09:22:58.969Z,1.00
2022-10-11T09:25:30.393Z,0.70
2022-10-11T09:28:13.334Z,0.90
2022-10-11T09:30:47.716Z,1.00
2022-10-11T09:33:21.904Z,1.17
2022-10-11T09:35:52.454Z,0.80
2022-10-11T09:38:32.002Z,0.80
2022-10-11T09:41:08.711Z,0.82
2022-10-11T09:43:36.542Z,0.77
2022-10-11T09:46:04.630Z,1.33
2022-10-11T09:48:41.238Z,0.70
2022-10-11T09:51:16.318Z,0.70
2022-10-11T09:53:55.666Z,0.80
2022-10-11T09:56:25.184Z,0.70
2022-10-11T09:59:17.070Z,0.85
2022-10-11T10:01:45.419Z,1.27
2022-10-11T10:04:18.106Z,1.00
2022-10-11T10:06:45.903Z,0.90
2022-10-11T10:09:28.681Z,1.20
2022-10-11T10:11:57.527Z,1.08
2022-10-11T10:14:30.461Z,1.00
2022-10-11T10:17:04.794Z,1.35
2022-10-11T10:19:44.747Z,1.15
2022-10-11T10:22:18.304Z,0.77
2022-10-11T10:24:46.216Z,0.90
2022-10-11T10:27:22.414Z,0.83
2022-10-11T10:30:15.635Z,0.82
2022-10-11T10:32:53.165Z,0.77
2022-10-11T10:35:32.448Z,1.02
2022-10-11T10:38:08.762Z,0.77
2022-10-11T10:40:43.663Z,0.90
2022-10-11T10:43:16.828Z,0.77
2022-10-11T10:46:08.345Z,1.27
2022-10-11T10:49:23.227Z,0.70
2022-10-11T10:51:45.085Z,1.10
2022-10-11T10:54:23.619Z,0.80
2022-10-11T10:56:55.773Z,0.70
2022-10-11T10:59:41.370Z,1.20
2022-10-11T11:02:39.038Z,0.68
2022-10-11T11:05:13.361Z,0.88
2022-10-11T11:07:47.394Z,1.20
2022-10-11T11:10:20.158Z,0.90
2022-10-11T11:12:54.224Z,0.80
2022-10-11T11:15:32.620Z,0.75
2022-10-11T11:18:17.743Z,0.82
2022-10-11T11:20:59.000Z,0.90
2022-10-11T11:23:36.525Z,0.80
2022-10-11T11:26:11.949Z,0.80
2022-10-11T11:28:54.645Z,1.00
2022-10-11T11:31:37.654Z,0.70
2022-10-11T11:34:15.867Z,0.80
2022-10-11T11:36:46.743Z,0.90
2022-10-11T11:39:20.010Z,0.80
2022-10-11T11:41:52.387Z,1.42
2022-10-11T11:44:27.582Z,1.10
2022-10-11T11:47:00.260Z,1.10
2022-10-11T11:49:35.139Z,0.80
2022-10-11T11:52:04.666Z,1.15
2022-10-11T11:54:43.348Z,1.45
2022-10-11T11:57:19.547Z,1.10
2022-10-11T11:59:52.587Z,1.03
2022-10-11T12:02:43.142Z,0.80
2022-10-11T12:05:13.432Z,0.80
2022-10-11T12:07:55.090Z,0.80
2022-10-11T12:10:37.256Z,1.10
2022-10-11T12:13:21.065Z,0.70
2022-10-11T12:16:10.620Z,0.75
2022-10-11T12:18:53.033Z,1.08
2022-10-11T12:21:30.715Z,1.10
2022-10-11T12:24:00.136Z,1.17
2022-10-11T12:26:42.862Z,1.03
2022-10-11T12:29:55.080Z,0.95
2022-10-11T12:32:53.566Z,1.52
2022-10-11T12:35:48.574Z,0.63
2022-10-11T12:38:19.710Z,0.93
2022-10-11T12:40:49.574Z,0.93
2022-10-11T12:43:37.247Z,1.30
2022-10-11T12:46:40.528Z,1.15
2022-10-11T12:49:37.366Z,0.93
2022-10-11T12:52:06.904Z,1.20
2022-10-11T12:55:13.853Z,0.80
2022-10-11T12:58:12.609Z,1.00
2022-10-11T13:00:46.479Z,1.20
2022-10-11T13:03:32.245Z,0.70
2022-10-11T13:06:01.976Z,1.00
2022-10-11T13:08:33.102Z,0.80
2022-10-11T13:11:04.351Z,0.90
2022-10-11T13:13:35.621Z,1.17
2022-10-11T13:16:13.353Z,0.80
2022-10-11T13:18:44.034Z,0.85
2022-10-11T13:21:23.120Z,1.10
2022-10-11T13:23:55.802Z,0.90
2022-10-11T13:26:23.996Z,0.93
2022-10-11T13:28:51.908Z,1.35
2022-10-11T13:31:21.112Z,1.05
2022-10-11T13:33:48.938Z,0.90
2022-10-11T13:36:18.623Z,1.27
2022-10-11T13:38:53.805Z,1.33
2022-10-11T13:41:22.585Z,1.05
2022-10-11T13:43:50.544Z,1.10
2022-10-11T13:46:23.500Z,0.90
2022-10-11T13:49:01.735Z,0.90
2022-10-11T13:51:33.220Z,1.33
2022-10-11T13:54:03.172Z,1.23
2022-10-11T13:56:35.260Z,1.20
2022-10-11T13:59:03.236Z,1.10
2022-10-11T14:01:39.717Z,0.90
2022-10-11T14:04:09.735Z,1.63
2022-10-11T14:06:43.226Z,1.40
2022-10-11T14:09:19.140Z,1.00
2022-10-11T14:11:47.076Z,1.83
2022-10-11T14:14:42.509Z,0.88
2022-10-11T14:17:17.691Z,1.40
2022-10-11T14:19:47.542Z,1.13
2022-10-11T14:22:17.417Z,1.45
2022-10-11T14:24:48.648Z,1.10
2022-10-11T14:27:19.378Z,1.27
2022-10-11T14:30:00.441Z,1.23
2022-10-11T14:32:36.451Z,1.60
2022-10-11T14:35:05.242Z,1.20
2022-10-11T14:37:32.983Z,0.87
2022-10-11T14:40:01.118Z,1.00
2022-10-11T14:42:28.803Z,1.13
2022-10-11T14:44:56.459Z,0.95
2022-10-11T14:47:24.118Z,0.90
2022-10-11T14:49:53.248Z,1.07
2022-10-11T14:52:20.962Z,1.02
2022-10-11T14:54:48.677Z,1.27
2022-10-11T14:57:16.379Z,1.35
2022-10-11T14:59:43.986Z,0.95
2022-10-11T15:02:12.903Z,1.10
2022-10-11T15:04:40.796Z,1.20
2022-10-11T15:07:13.219Z,1.02
2022-10-11T15:09:40.922Z,1.08
2022-10-11T15:12:09.998Z,1.80
2022-10-11T15:14:37.712Z,1.30
2022-10-11T15:17:05.606Z,1.20
2022-10-11T15:19:33.533Z,0.90
2022-10-11T15:22:02.301Z,1.58
2022-10-11T15:24:31.418Z,1.30
2022-10-11T15:26:59.043Z,1.10
2022-10-11T15:29:26.714Z,1.10
2022-10-11T15:31:54.461Z,1.17
2022-10-11T15:34:22.321Z,1.08
2022-10-11T15:36:50.144Z,1.25
2022-10-11T15:39:26.835Z,1.30
2022-10-11T15:41:56.077Z,1.05
2022-10-11T15:44:23.815Z,1.05
2022-10-11T15:46:51.759Z,1.10
2022-10-11T15:49:19.587Z,1.10
2022-10-11T15:51:47.286Z,1.53
2022-10-11T15:54:15.106Z,0.90
2022-10-11T15:56:43.038Z,1.27
2022-10-11T15:59:12.681Z,1.00
2022-10-11T16:01:40.619Z,1.45
2022-10-11T16:04:08.433Z,1.20
2022-10-11T16:06:36.199Z,1.30
2022-10-11T16:09:04.045Z,1.25
2022-10-11T16:11:31.937Z,1.33
2022-10-11T16:13:59.656Z,1.13
2022-10-11T16:16:28.777Z,1.40
2022-10-11T16:18:56.554Z,1.23
2022-10-11T16:21:24.678Z,1.48
2022-10-11T16:23:52.736Z,1.58
2022-10-11T16:26:20.572Z,1.40
2022-10-11T16:28:48.702Z,1.77
2022-10-11T16:31:20.702Z,1.17
2022-10-11T16:33:50.221Z,1.40
2022-10-11T16:36:35.746Z,1.20
2022-10-11T16:39:07.067Z,1.80
2022-10-11T16:41:34.825Z,1.30
2022-10-11T16:44:03.021Z,1.40
2022-10-11T16:46:32.021Z,1.48
2022-10-11T16:49:01.110Z,1.20
2022-10-11T16:51:28.906Z,1.63
2022-10-11T16:53:56.722Z,1.47
2022-10-11T16:56:25.064Z,1.45
2022-10-11T16:58:53.743Z,1.70
2022-10-11T17:01:23.229Z,1.65
2022-10-11T17:03:51.436Z,2.00
2022-10-11T17:06:20.921Z,1.60
2022-10-11T17:08:48.626Z,1.75
2022-10-11T17:11:17.483Z,2.20
2022-10-11T17:13:45.784Z,2.20
2022-10-11T17:16:13.622Z,2.72
2022-10-11T17:18:41.384Z,2.53
2022-10-11T17:21:12.614Z,4.82
2022-10-11T17:23:42.617Z,3.55
2022-10-11T17:26:15.183Z,3.10
2022-10-11T17:28:43.097Z,2.55
2022-10-11T17:31:10.787Z,2.30
2022-10-11T17:33:38.672Z,2.65
2022-10-11T17:36:15.036Z,1.70
2022-10-11T17:38:44.144Z,2.00
2022-10-11T17:41:12.879Z,1.65
2022-10-11T17:43:40.832Z,1.90
2022-10-11T17:46:09.641Z,1.80
2022-10-11T17:48:39.223Z,1.77
2022-10-11T17:51:09.154Z,1.80
2022-10-11T17:53:37.619Z,2.03
2022-10-11T17:56:08.746Z,2.03
2022-10-11T17:58:36.674Z,1.52
2022-10-11T18:01:06.769Z,2.33
2022-10-11T18:03:35.455Z,2.00
2022-10-11T18:06:04.675Z,2.28
2022-10-11T18:08:36.408Z,1.90
2022-10-11T18:11:12.581Z,1.90
2022-10-11T18:13:42.901Z,1.80
2022-10-11T18:16:11.479Z,1.70
2022-10-11T18:18:39.506Z,2.88
2022-10-11T18:21:07.239Z,1.60
2022-10-11T18:23:36.312Z,2.20
2022-10-11T18:26:12.387Z,1.65
2022-10-11T18:28:41.661Z,2.08
2022-10-11T18:31:13.438Z,2.00
2022-10-11T18:33:41.663Z,2.43
2022-10-11T18:36:10.961Z,2.35
2022-10-11T18:38:39.689Z,1.80
2022-10-11T18:41:08.581Z,2.10
2022-10-11T18:43:39.295Z,1.80
2022-10-11T18:46:08.473Z,1.70
2022-10-11T18:48:36.671Z,2.20
2022-10-11T18:51:09.664Z,2.17
2022-10-11T18:53:37.890Z,1.80
2022-10-11T18:56:08.701Z,1.90
2022-10-11T18:58:39.773Z,1.97
2022-10-11T19:01:09.194Z,2.05
2022-10-11T19:03:37.534Z,1.70
2022-10-11T19:06:06.822Z,1.90
2022-10-11T19:08:34.961Z,2.30
2022-10-11T19:11:07.019Z,3.90
2022-10-11T19:13:35.156Z,3.30
2022-10-11T19:16:09.629Z,2.55
2022-10-11T19:18:43.200Z,2.45
2022-10-11T19:21:14.451Z,3.10
2022-10-11T19:23:44.195Z,2.30
2022-10-11T19:26:14.786Z,3.28
2022-10-11T19:28:43.540Z,3.40
2022-10-11T19:31:16.807Z,3.47
2022-10-11T19:33:45.700Z,3.40
2022-10-11T19:36:14.715Z,3.43
2022-10-11T19:38:45.232Z,3.45
2022-10-11T19:41:14.498Z,3.78
2022-10-11T19:43:42.170Z,4.35
2022-10-11T19:46:20.299Z,4.45
2022-10-11T19:48:51.996Z,4.47
2022-10-11T19:51:22.530Z,4.53
2022-10-11T19:53:55.730Z,4.32
2022-10-11T19:56:23.777Z,3.55
2022-10-11T19:58:52.463Z,3.53
2022-10-11T20:01:23.754Z,3.93
2022-10-11T20:03:53.203Z,4.13
2022-10-11T20:06:22.292Z,3.95
2022-10-11T20:09:10.346Z,3.75
2022-10-11T20:11:38.716Z,3.63
2022-10-11T20:14:06.844Z,3.90
2022-10-11T20:16:36.026Z,3.25
2022-10-11T20:19:03.917Z,3.45
2022-10-11T20:21:33.010Z,3.67
2022-10-11T20:24:02.570Z,3.30
2022-10-11T20:26:31.720Z,3.13
2022-10-11T20:28:59.454Z,3.42
2022-10-11T20:31:29.936Z,3.50
2022-10-11T20:34:01.264Z,3.38
2022-10-11T20:36:30.464Z,3.40
2022-10-11T20:38:59.310Z,3.37
2022-10-11T20:41:28.570Z,3.53
2022-10-11T20:43:57.667Z,3.55
2022-10-11T20:46:26.885Z,3.55
2022-10-11T20:49:01.304Z,3.50
2022-10-11T20:51:31.827Z,3.50
2022-10-11T20:54:00.475Z,3.80
2022-10-11T20:56:28.211Z,3.95
2022-10-11T20:58:58.113Z,4.18
2022-10-11T21:01:27.877Z,4.28
2022-10-11T21:03:57.986Z,4.20
2022-10-11T21:06:26.360Z,3.50
2022-10-11T21:08:56.902Z,4.10
2022-10-11T21:11:25.678Z,3.85
2022-10-11T21:13:56.122Z,4.18
2022-10-11T21:16:25.668Z,4.03
2022-10-11T21:18:55.307Z,4.10
2022-10-11T21:21:24.375Z,3.85
2022-10-11T21:23:56.249Z,4.25
2022-10-11T21:26:24.197Z,3.95
2022-10-11T21:28:52.387Z,4.20
2022-10-11T21:31:22.020Z,3.80
2022-10-11T21:33:49.895Z,3.83
2022-10-11T21:36:19.311Z,3.90
2022-10-11T21:38:47.690Z,4.00
2022-10-11T21:41:18.988Z,3.60
2022-10-11T21:43:47.663Z,3.72
2022-10-11T21:46:17.070Z,3.53
2022-10-11T21:48:45.140Z,3.40
2022-10-11T21:53:47.501Z,3.13
2022-10-11T21:56:16.699Z,3.15
2022-10-11T21:58:44.359Z,2.80
2022-10-11T22:01:12.505Z,2.88
2022-10-11T22:03:40.210Z,3.33
2022-10-11T22:06:07.927Z,3.33
2022-10-11T22:08:35.686Z,2.80
2022-10-11T22:11:03.476Z,3.10
2022-10-11T22:13:33.999Z,2.95
2022-10-11T22:16:04.144Z,3.05
2022-10-11T22:18:33.620Z,3.17
2022-10-11T22:21:05.780Z,3.35
2022-10-11T22:23:33.709Z,3.45
2022-10-11T22:26:05.827Z,3.35
2022-10-11T22:28:35.336Z,3.17
2022-10-11T22:31:05.501Z,3.07
2022-10-11T22:33:33.379Z,3.45
2022-10-11T22:36:02.857Z,3.45
2022-10-11T22:38:30.978Z,3.03
2022-10-11T22:40:59.272Z,3.20
2022-10-11T22:43:27.067Z,3.20
2022-10-11T22:45:56.048Z,3.03
2022-10-11T22:48:23.787Z,3.00
2022-10-11T22:50:51.433Z,3.30
2022-10-11T22:53:19.407Z,3.20
2022-10-11T22:55:47.775Z,3.40
2022-10-11T22:58:15.797Z,3.63
2022-10-11T23:00:43.989Z,3.10
2022-10-11T23:03:15.169Z,3.70
2022-10-11T23:05:43.321Z,3.10
2022-10-11T23:08:11.240Z,3.30
2022-10-11T23:10:39.559Z,3.00
2022-10-11T23:13:07.364Z,3.00
2022-10-11T23:15:35.097Z,2.90
2022-10-11T23:18:02.789Z,2.92
2022-10-11T23:20:31.774Z,3.13
2022-10-11T23:22:59.577Z,3.00
2022-10-11T23:25:27.284Z,3.28
2022-10-11T23:27:54.957Z,3.10
2022-10-11T23:30:22.669Z,3.05
2022-10-11T23:32:50.827Z,3.10
2022-10-11T23:35:18.564Z,2.85
2022-10-11T23:37:47.585Z,3.83
2022-10-11T23:40:15.907Z,3.35
2022-10-11T23:42:43.566Z,2.92
2022-10-11T23:45:11.747Z,3.50
2022-10-11T23:47:40.045Z,3.33
2022-10-11T23:50:09.360Z,3.63
2022-10-11T23:52:37.113Z,3.05
2022-10-11T23:55:06.961Z,3.40
2022-10-11T23:57:34.712Z,3.77
